sensor_id;sensor_type;location;lat;lon;timestamp;P1;durP1;ratioP1;P2;durP2;ratioP2
60472;SDS011;46318;52.716;6.444;2023-09-07T00:00:29;4.43;;;3.30;;
60472;SDS011;46318;52.716;6.444;2023-09-07T00:02:55;6.47;;;3.95;;
60472;SDS011;46318;52.716;6.444;2023-09-07T00:05:21;4.15;;;3.70;;
60472;SDS011;46318;52.716;6.444;2023-09-07T00:07:47;4.70;;;4.18;;
60472;SDS011;46318;52.716;6.444;2023-09-07T00:10:13;5.78;;;3.88;;
60472;SDS011;46318;52.716;6.444;2023-09-07T00:12:39;4.07;;;3.75;;
60472;SDS011;46318;52.716;6.444;2023-09-07T00:15:05;7.10;;;4.20;;
60472;SDS011;46318;52.716;6.444;2023-09-07T00:17:32;4.30;;;3.78;;
60472;SDS011;46318;52.716;6.444;2023-09-07T00:19:58;4.88;;;3.75;;
60472;SDS011;46318;52.716;6.444;2023-09-07T00:22:24;4.25;;;3.55;;
60472;SDS011;46318;52.716;6.444;2023-09-07T00:24:52;4.75;;;4.13;;
60472;SDS011;46318;52.716;6.444;2023-09-07T00:27:18;4.28;;;3.97;;
60472;SDS011;46318;52.716;6.444;2023-09-07T00:29:44;5.45;;;4.03;;
60472;SDS011;46318;52.716;6.444;2023-09-07T00:32:10;5.28;;;3.78;;
60472;SDS011;46318;52.716;6.444;2023-09-07T00:34:36;4.22;;;3.30;;
60472;SDS011;46318;52.716;6.444;2023-09-07T00:37:01;4.05;;;3.65;;
60472;SDS011;46318;52.716;6.444;2023-09-07T00:39:27;4.32;;;3.58;;
60472;SDS011;46318;52.716;6.444;2023-09-07T00:41:53;6.68;;;3.45;;
60472;SDS011;46318;52.716;6.444;2023-09-07T00:44:20;3.90;;;3.55;;
60472;SDS011;46318;52.716;6.444;2023-09-07T00:46:46;4.22;;;3.83;;
60472;SDS011;46318;52.716;6.444;2023-09-07T00:49:12;4.57;;;3.60;;
60472;SDS011;46318;52.716;6.444;2023-09-07T00:51:39;4.03;;;3.65;;
60472;SDS011;46318;52.716;6.444;2023-09-07T00:54:05;4.40;;;3.53;;
60472;SDS011;46318;52.716;6.444;2023-09-07T00:56:31;6.55;;;3.95;;
60472;SDS011;46318;52.716;6.444;2023-09-07T00:58:57;4.90;;;4.20;;
60472;SDS011;46318;52.716;6.444;2023-09-07T01:01:26;4.32;;;3.70;;
60472;SDS011;46318;52.716;6.444;2023-09-07T01:03:52;5.35;;;4.10;;
60472;SDS011;46318;52.716;6.444;2023-09-07T01:06:32;4.57;;;4.00;;
60472;SDS011;46318;52.716;6.444;2023-09-07T01:09:03;5.88;;;4.28;;
60472;SDS011;46318;52.716;6.444;2023-09-07T01:11:36;5.20;;;4.20;;
60472;SDS011;46318;52.716;6.444;2023-09-07T01:14:03;6.18;;;4.20;;
60472;SDS011;46318;52.716;6.444;2023-09-07T01:16:29;7.18;;;4.38;;
60472;SDS011;46318;52.716;6.444;2023-09-07T01:18:59;4.60;;;4.20;;
60472;SDS011;46318;52.716;6.444;2023-09-07T01:21:26;4.63;;;4.22;;
60472;SDS011;46318;52.716;6.444;2023-09-07T01:24:00;6.22;;;4.80;;
60472;SDS011;46318;52.716;6.444;2023-09-07T01:26:28;6.47;;;4.78;;
60472;SDS011;46318;52.716;6.444;2023-09-07T01:28:54;5.22;;;4.28;;
60472;SDS011;46318;52.716;6.444;2023-09-07T01:31:20;5.22;;;4.80;;
60472;SDS011;46318;52.716;6.444;2023-09-07T01:33:46;5.30;;;4.78;;
60472;SDS011;46318;52.716;6.444;2023-09-07T01:36:12;8.63;;;4.90;;
60472;SDS011;46318;52.716;6.444;2023-09-07T01:38:37;6.22;;;4.80;;
60472;SDS011;46318;52.716;6.444;2023-09-07T01:41:03;6.25;;;4.53;;
60472;SDS011;46318;52.716;6.444;2023-09-07T01:43:29;6.45;;;5.05;;
60472;SDS011;46318;52.716;6.444;2023-09-07T01:45:55;5.13;;;4.45;;
60472;SDS011;46318;52.716;6.444;2023-09-07T01:48:21;6.20;;;4.70;;
60472;SDS011;46318;52.716;6.444;2023-09-07T01:50:46;4.60;;;4.28;;
60472;SDS011;46318;52.716;6.444;2023-09-07T01:53:12;5.63;;;5.00;;
60472;SDS011;46318;52.716;6.444;2023-09-07T01:55:38;10.07;;;5.38;;
60472;SDS011;46318;52.716;6.444;2023-09-07T01:58:04;5.10;;;4.70;;
60472;SDS011;46318;52.716;6.444;2023-09-07T02:00:30;5.53;;;4.65;;
60472;SDS011;46318;52.716;6.444;2023-09-07T02:02:55;5.20;;;4.70;;
60472;SDS011;46318;52.716;6.444;2023-09-07T02:05:21;4.85;;;4.45;;
60472;SDS011;46318;52.716;6.444;2023-09-07T02:07:47;6.63;;;4.57;;
60472;SDS011;46318;52.716;6.444;2023-09-07T02:10:14;5.22;;;4.72;;
60472;SDS011;46318;52.716;6.444;2023-09-07T02:12:40;5.43;;;4.10;;
60472;SDS011;46318;52.716;6.444;2023-09-07T02:15:06;5.13;;;4.25;;
60472;SDS011;46318;52.716;6.444;2023-09-07T02:17:32;8.35;;;4.50;;
60472;SDS011;46318;52.716;6.444;2023-09-07T02:19:58;4.72;;;4.32;;
60472;SDS011;46318;52.716;6.444;2023-09-07T02:22:24;4.60;;;4.25;;
60472;SDS011;46318;52.716;6.444;2023-09-07T02:24:50;5.43;;;4.40;;
60472;SDS011;46318;52.716;6.444;2023-09-07T02:27:16;5.63;;;4.30;;
60472;SDS011;46318;52.716;6.444;2023-09-07T02:29:41;4.85;;;4.30;;
60472;SDS011;46318;52.716;6.444;2023-09-07T02:32:08;6.00;;;4.57;;
60472;SDS011;46318;52.716;6.444;2023-09-07T02:34:34;5.80;;;4.60;;
60472;SDS011;46318;52.716;6.444;2023-09-07T02:37:01;5.43;;;4.93;;
60472;SDS011;46318;52.716;6.444;2023-09-07T02:39:28;5.07;;;4.57;;
60472;SDS011;46318;52.716;6.444;2023-09-07T02:41:54;5.28;;;4.75;;
60472;SDS011;46318;52.716;6.444;2023-09-07T02:44:20;6.10;;;5.13;;
60472;SDS011;46318;52.716;6.444;2023-09-07T02:46:46;7.05;;;5.03;;
60472;SDS011;46318;52.716;6.444;2023-09-07T02:49:12;5.88;;;5.07;;
60472;SDS011;46318;52.716;6.444;2023-09-07T02:51:38;7.47;;;4.85;;
60472;SDS011;46318;52.716;6.444;2023-09-07T02:54:04;7.72;;;5.13;;
60472;SDS011;46318;52.716;6.444;2023-09-07T02:56:30;5.60;;;5.00;;
60472;SDS011;46318;52.716;6.444;2023-09-07T02:58:56;5.43;;;4.93;;
60472;SDS011;46318;52.716;6.444;2023-09-07T03:01:22;5.22;;;4.72;;
60472;SDS011;46318;52.716;6.444;2023-09-07T03:03:48;5.95;;;5.35;;
60472;SDS011;46318;52.716;6.444;2023-09-07T03:06:14;5.70;;;5.20;;
60472;SDS011;46318;52.716;6.444;2023-09-07T03:08:43;6.05;;;5.50;;
60472;SDS011;46318;52.716;6.444;2023-09-07T03:11:10;6.35;;;5.65;;
60472;SDS011;46318;52.716;6.444;2023-09-07T03:13:37;6.05;;;5.45;;
60472;SDS011;46318;52.716;6.444;2023-09-07T03:16:03;5.93;;;5.25;;
60472;SDS011;46318;52.716;6.444;2023-09-07T03:18:30;6.07;;;5.30;;
60472;SDS011;46318;52.716;6.444;2023-09-07T03:20:58;7.85;;;5.60;;
60472;SDS011;46318;52.716;6.444;2023-09-07T03:23:27;6.00;;;5.50;;
60472;SDS011;46318;52.716;6.444;2023-09-07T03:25:54;7.68;;;6.10;;
60472;SDS011;46318;52.716;6.444;2023-09-07T03:28:19;5.88;;;5.38;;
60472;SDS011;46318;52.716;6.444;2023-09-07T03:30:45;6.40;;;5.80;;
60472;SDS011;46318;52.716;6.444;2023-09-07T03:33:11;6.13;;;5.60;;
60472;SDS011;46318;52.716;6.444;2023-09-07T03:35:37;5.63;;;5.22;;
60472;SDS011;46318;52.716;6.444;2023-09-07T03:38:03;6.43;;;5.85;;
60472;SDS011;46318;52.716;6.444;2023-09-07T03:40:29;6.95;;;5.53;;
60472;SDS011;46318;52.716;6.444;2023-09-07T03:42:55;6.47;;;5.85;;
60472;SDS011;46318;52.716;6.444;2023-09-07T03:45:21;6.60;;;5.85;;
60472;SDS011;46318;52.716;6.444;2023-09-07T03:47:46;7.18;;;6.22;;
60472;SDS011;46318;52.716;6.444;2023-09-07T03:50:12;7.05;;;5.70;;
60472;SDS011;46318;52.716;6.444;2023-09-07T03:52:38;6.65;;;6.05;;
60472;SDS011;46318;52.716;6.444;2023-09-07T03:55:04;6.70;;;6.00;;
60472;SDS011;46318;52.716;6.444;2023-09-07T03:57:33;8.75;;;5.85;;
60472;SDS011;46318;52.716;6.444;2023-09-07T03:59:59;6.50;;;5.90;;
60472;SDS011;46318;52.716;6.444;2023-09-07T04:02:25;6.78;;;6.13;;
60472;SDS011;46318;52.716;6.444;2023-09-07T04:04:51;8.18;;;7.05;;
60472;SDS011;46318;52.716;6.444;2023-09-07T04:07:19;7.38;;;6.68;;
60472;SDS011;46318;52.716;6.444;2023-09-07T04:09:45;7.18;;;6.50;;
60472;SDS011;46318;52.716;6.444;2023-09-07T04:12:11;8.32;;;5.97;;
60472;SDS011;46318;52.716;6.444;2023-09-07T04:14:37;6.70;;;6.03;;
60472;SDS011;46318;52.716;6.444;2023-09-07T04:17:03;7.28;;;6.68;;
60472;SDS011;46318;52.716;6.444;2023-09-07T04:19:30;7.82;;;6.80;;
60472;SDS011;46318;52.716;6.444;2023-09-07T04:21:56;6.93;;;6.40;;
60472;SDS011;46318;52.716;6.444;2023-09-07T04:24:23;8.10;;;6.82;;
60472;SDS011;46318;52.716;6.444;2023-09-07T04:26:49;8.25;;;6.93;;
60472;SDS011;46318;52.716;6.444;2023-09-07T04:29:15;7.40;;;6.70;;
60472;SDS011;46318;52.716;6.444;2023-09-07T04:31:41;7.35;;;6.35;;
60472;SDS011;46318;52.716;6.444;2023-09-07T04:34:07;6.75;;;6.15;;
60472;SDS011;46318;52.716;6.444;2023-09-07T04:36:33;7.18;;;6.53;;
60472;SDS011;46318;52.716;6.444;2023-09-07T04:38:59;7.22;;;6.40;;
60472;SDS011;46318;52.716;6.444;2023-09-07T04:41:25;7.20;;;6.53;;
60472;SDS011;46318;52.716;6.444;2023-09-07T04:43:51;7.35;;;6.72;;
60472;SDS011;46318;52.716;6.444;2023-09-07T04:46:17;6.82;;;6.22;;
60472;SDS011;46318;52.716;6.444;2023-09-07T04:48:46;7.65;;;6.43;;
60472;SDS011;46318;52.716;6.444;2023-09-07T04:51:12;9.55;;;7.10;;
60472;SDS011;46318;52.716;6.444;2023-09-07T04:53:38;8.13;;;7.43;;
60472;SDS011;46318;52.716;6.444;2023-09-07T04:56:05;7.60;;;6.90;;
60472;SDS011;46318;52.716;6.444;2023-09-07T04:58:35;9.13;;;7.35;;
60472;SDS011;46318;52.716;6.444;2023-09-07T05:01:05;8.30;;;7.50;;
60472;SDS011;46318;52.716;6.444;2023-09-07T05:03:33;7.00;;;6.50;;
60472;SDS011;46318;52.716;6.444;2023-09-07T05:06:00;8.20;;;7.40;;
60472;SDS011;46318;52.716;6.444;2023-09-07T05:08:28;9.13;;;7.53;;
60472;SDS011;46318;52.716;6.444;2023-09-07T05:10:54;8.55;;;7.57;;
60472;SDS011;46318;52.716;6.444;2023-09-07T05:13:22;7.88;;;7.18;;
60472;SDS011;46318;52.716;6.444;2023-09-07T05:15:52;8.27;;;7.45;;
60472;SDS011;46318;52.716;6.444;2023-09-07T05:18:20;7.88;;;7.28;;
60472;SDS011;46318;52.716;6.444;2023-09-07T05:20:47;7.88;;;7.22;;
60472;SDS011;46318;52.716;6.444;2023-09-07T05:23:19;8.25;;;7.45;;
60472;SDS011;46318;52.716;6.444;2023-09-07T05:25:51;8.55;;;7.65;;
60472;SDS011;46318;52.716;6.444;2023-09-07T05:28:19;8.23;;;7.43;;
60472;SDS011;46318;52.716;6.444;2023-09-07T05:30:46;8.25;;;7.55;;
60472;SDS011;46318;52.716;6.444;2023-09-07T05:33:15;8.00;;;7.30;;
60472;SDS011;46318;52.716;6.444;2023-09-07T05:35:43;8.15;;;7.40;;
60472;SDS011;46318;52.716;6.444;2023-09-07T05:38:10;8.15;;;7.38;;
60472;SDS011;46318;52.716;6.444;2023-09-07T05:40:37;8.75;;;7.90;;
60472;SDS011;46318;52.716;6.444;2023-09-07T05:43:05;8.68;;;7.43;;
60472;SDS011;46318;52.716;6.444;2023-09-07T05:45:35;9.50;;;8.27;;
60472;SDS011;46318;52.716;6.444;2023-09-07T05:48:04;9.65;;;8.75;;
60472;SDS011;46318;52.716;6.444;2023-09-07T05:50:33;9.70;;;8.13;;
60472;SDS011;46318;52.716;6.444;2023-09-07T05:53:00;8.60;;;7.90;;
60472;SDS011;46318;52.716;6.444;2023-09-07T05:55:26;8.63;;;7.75;;
60472;SDS011;46318;52.716;6.444;2023-09-07T05:57:56;8.07;;;7.30;;
60472;SDS011;46318;52.716;6.444;2023-09-07T06:00:22;8.13;;;7.43;;
60472;SDS011;46318;52.716;6.444;2023-09-07T06:02:48;8.45;;;7.63;;
60472;SDS011;46318;52.716;6.444;2023-09-07T06:05:15;8.27;;;7.50;;
60472;SDS011;46318;52.716;6.444;2023-09-07T06:07:42;8.50;;;7.70;;
60472;SDS011;46318;52.716;6.444;2023-09-07T06:10:09;8.57;;;7.78;;
60472;SDS011;46318;52.716;6.444;2023-09-07T06:12:35;8.38;;;7.63;;
60472;SDS011;46318;52.716;6.444;2023-09-07T06:15:01;7.70;;;7.10;;
60472;SDS011;46318;52.716;6.444;2023-09-07T06:17:28;8.20;;;7.40;;
60472;SDS011;46318;52.716;6.444;2023-09-07T06:19:55;8.32;;;7.53;;
60472;SDS011;46318;52.716;6.444;2023-09-07T06:22:21;8.45;;;7.18;;
60472;SDS011;46318;52.716;6.444;2023-09-07T06:24:47;7.78;;;7.03;;
60472;SDS011;46318;52.716;6.444;2023-09-07T06:27:14;8.15;;;7.38;;
60472;SDS011;46318;52.716;6.444;2023-09-07T06:29:40;10.02;;;7.55;;
60472;SDS011;46318;52.716;6.444;2023-09-07T06:32:05;7.88;;;7.25;;
60472;SDS011;46318;52.716;6.444;2023-09-07T06:34:31;7.97;;;7.28;;
60472;SDS011;46318;52.716;6.444;2023-09-07T06:36:57;7.28;;;6.68;;
60472;SDS011;46318;52.716;6.444;2023-09-07T06:39:23;8.50;;;7.47;;
60472;SDS011;46318;52.716;6.444;2023-09-07T06:41:50;8.88;;;7.95;;
60472;SDS011;46318;52.716;6.444;2023-09-07T06:44:16;12.00;;;7.38;;
60472;SDS011;46318;52.716;6.444;2023-09-07T06:46:46;9.00;;;7.13;;
60472;SDS011;46318;52.716;6.444;2023-09-07T06:49:14;8.05;;;7.00;;
60472;SDS011;46318;52.716;6.444;2023-09-07T06:51:40;8.07;;;7.22;;
60472;SDS011;46318;52.716;6.444;2023-09-07T06:54:06;8.23;;;7.30;;
60472;SDS011;46318;52.716;6.444;2023-09-07T06:56:31;7.82;;;7.00;;
60472;SDS011;46318;52.716;6.444;2023-09-07T06:58:59;8.30;;;7.40;;
60472;SDS011;46318;52.716;6.444;2023-09-07T07:01:26;7.90;;;7.15;;
60472;SDS011;46318;52.716;6.444;2023-09-07T07:03:52;7.70;;;7.10;;
60472;SDS011;46318;52.716;6.444;2023-09-07T07:06:19;8.98;;;7.45;;
60472;SDS011;46318;52.716;6.444;2023-09-07T07:08:45;8.35;;;6.88;;
60472;SDS011;46318;52.716;6.444;2023-09-07T07:11:11;10.35;;;7.22;;
60472;SDS011;46318;52.716;6.444;2023-09-07T07:13:36;8.23;;;7.45;;
60472;SDS011;46318;52.716;6.444;2023-09-07T07:16:02;8.20;;;7.40;;
60472;SDS011;46318;52.716;6.444;2023-09-07T07:18:29;8.50;;;7.55;;
60472;SDS011;46318;52.716;6.444;2023-09-07T07:20:55;8.38;;;7.40;;
60472;SDS011;46318;52.716;6.444;2023-09-07T07:23:21;7.70;;;6.93;;
60472;SDS011;46318;52.716;6.444;2023-09-07T07:25:47;7.68;;;6.85;;
60472;SDS011;46318;52.716;6.444;2023-09-07T07:28:13;9.52;;;7.18;;
60472;SDS011;46318;52.716;6.444;2023-09-07T07:30:39;7.88;;;6.60;;
60472;SDS011;46318;52.716;6.444;2023-09-07T07:33:05;7.53;;;6.82;;
60472;SDS011;46318;52.716;6.444;2023-09-07T07:35:35;7.80;;;7.00;;
60472;SDS011;46318;52.716;6.444;2023-09-07T07:38:02;7.78;;;6.82;;
60472;SDS011;46318;52.716;6.444;2023-09-07T07:40:29;7.90;;;6.60;;
60472;SDS011;46318;52.716;6.444;2023-09-07T07:42:56;8.70;;;7.10;;
60472;SDS011;46318;52.716;6.444;2023-09-07T07:45:22;6.82;;;6.30;;
60472;SDS011;46318;52.716;6.444;2023-09-07T07:47:48;7.32;;;6.40;;
60472;SDS011;46318;52.716;6.444;2023-09-07T07:50:15;9.23;;;6.80;;
60472;SDS011;46318;52.716;6.444;2023-09-07T07:52:42;7.60;;;6.60;;
60472;SDS011;46318;52.716;6.444;2023-09-07T07:55:08;8.85;;;6.60;;
60472;SDS011;46318;52.716;6.444;2023-09-07T07:57:35;7.10;;;6.40;;
60472;SDS011;46318;52.716;6.444;2023-09-07T08:00:01;7.07;;;6.47;;
60472;SDS011;46318;52.716;6.444;2023-09-07T08:02:29;7.47;;;6.78;;
60472;SDS011;46318;52.716;6.444;2023-09-07T08:04:56;7.20;;;6.40;;
60472;SDS011;46318;52.716;6.444;2023-09-07T08:07:23;6.30;;;5.80;;
60472;SDS011;46318;52.716;6.444;2023-09-07T08:09:48;6.30;;;5.63;;
60472;SDS011;46318;52.716;6.444;2023-09-07T08:12:16;6.97;;;6.00;;
60472;SDS011;46318;52.716;6.444;2023-09-07T08:14:42;6.22;;;5.63;;
60472;SDS011;46318;52.716;6.444;2023-09-07T08:17:08;7.57;;;6.95;;
60472;SDS011;46318;52.716;6.444;2023-09-07T08:19:34;8.45;;;6.60;;
60472;SDS011;46318;52.716;6.444;2023-09-07T08:22:00;6.97;;;6.15;;
60472;SDS011;46318;52.716;6.444;2023-09-07T08:24:28;6.40;;;5.80;;
60472;SDS011;46318;52.716;6.444;2023-09-07T08:26:55;7.20;;;6.50;;
60472;SDS011;46318;52.716;6.444;2023-09-07T08:29:23;8.02;;;7.05;;
60472;SDS011;46318;52.716;6.444;2023-09-07T08:31:55;6.43;;;5.90;;
60472;SDS011;46318;52.716;6.444;2023-09-07T08:34:22;6.70;;;6.00;;
60472;SDS011;46318;52.716;6.444;2023-09-07T08:36:48;6.82;;;6.13;;
60472;SDS011;46318;52.716;6.444;2023-09-07T08:39:19;6.60;;;6.00;;
60472;SDS011;46318;52.716;6.444;2023-09-07T08:41:47;6.65;;;5.93;;
60472;SDS011;46318;52.716;6.444;2023-09-07T08:44:15;7.82;;;5.88;;
60472;SDS011;46318;52.716;6.444;2023-09-07T08:46:42;7.00;;;6.40;;
60472;SDS011;46318;52.716;6.444;2023-09-07T08:49:10;6.70;;;6.03;;
60472;SDS011;46318;52.716;6.444;2023-09-07T08:51:37;11.32;;;6.10;;
60472;SDS011;46318;52.716;6.444;2023-09-07T08:54:07;8.70;;;5.57;;
60472;SDS011;46318;52.716;6.444;2023-09-07T08:56:35;5.97;;;5.47;;
60472;SDS011;46318;52.716;6.444;2023-09-07T08:59:01;8.68;;;6.45;;
60472;SDS011;46318;52.716;6.444;2023-09-07T09:01:28;6.82;;;6.10;;
60472;SDS011;46318;52.716;6.444;2023-09-07T09:03:56;6.72;;;5.93;;
60472;SDS011;46318;52.716;6.444;2023-09-07T09:06:23;8.90;;;5.72;;
60472;SDS011;46318;52.716;6.444;2023-09-07T09:08:50;6.60;;;5.95;;
60472;SDS011;46318;52.716;6.444;2023-09-07T09:11:18;6.90;;;6.30;;
60472;SDS011;46318;52.716;6.444;2023-09-07T09:13:46;7.38;;;5.20;;
60472;SDS011;46318;52.716;6.444;2023-09-07T09:16:12;7.65;;;6.10;;
60472;SDS011;46318;52.716;6.444;2023-09-07T09:21:20;7.45;;;5.72;;
60472;SDS011;46318;52.716;6.444;2023-09-07T09:23:51;6.57;;;5.85;;
60472;SDS011;46318;52.716;6.444;2023-09-07T09:26:20;6.07;;;5.25;;
60472;SDS011;46318;52.716;6.444;2023-09-07T09:28:46;7.32;;;5.32;;
60472;SDS011;46318;52.716;6.444;2023-09-07T09:31:13;6.68;;;5.75;;
60472;SDS011;46318;52.716;6.444;2023-09-07T09:33:42;6.07;;;5.38;;
60472;SDS011;46318;52.716;6.444;2023-09-07T09:36:14;8.23;;;5.50;;
60472;SDS011;46318;52.716;6.444;2023-09-07T09:38:46;6.88;;;6.15;;
60472;SDS011;46318;52.716;6.444;2023-09-07T09:41:15;6.97;;;5.88;;
60472;SDS011;46318;52.716;6.444;2023-09-07T09:43:43;5.85;;;5.35;;
60472;SDS011;46318;52.716;6.444;2023-09-07T09:46:11;7.20;;;5.40;;
60472;SDS011;46318;52.716;6.444;2023-09-07T09:48:38;5.63;;;5.05;;
60472;SDS011;46318;52.716;6.444;2023-09-07T09:51:07;5.93;;;5.30;;
60472;SDS011;46318;52.716;6.444;2023-09-07T09:53:33;7.78;;;5.10;;
60472;SDS011;46318;52.716;6.444;2023-09-07T09:56:00;5.72;;;5.22;;
60472;SDS011;46318;52.716;6.444;2023-09-07T09:58:26;6.45;;;5.32;;
60472;SDS011;46318;52.716;6.444;2023-09-07T10:00:54;6.25;;;5.65;;
60472;SDS011;46318;52.716;6.444;2023-09-07T10:05:51;6.25;;;5.35;;
60472;SDS011;46318;52.716;6.444;2023-09-07T10:08:18;8.27;;;5.65;;
60472;SDS011;46318;52.716;6.444;2023-09-07T10:10:50;6.47;;;5.10;;
60472;SDS011;46318;52.716;6.444;2023-09-07T10:13:28;7.15;;;5.55;;
60472;SDS011;46318;52.716;6.444;2023-09-07T10:15:59;5.68;;;4.90;;
60472;SDS011;46318;52.716;6.444;2023-09-07T10:18:33;7.10;;;4.97;;
60472;SDS011;46318;52.716;6.444;2023-09-07T10:21:00;6.00;;;5.00;;
60472;SDS011;46318;52.716;6.444;2023-09-07T10:26:13;9.10;;;5.28;;
60472;SDS011;46318;52.716;6.444;2023-09-07T10:28:41;5.13;;;4.63;;
60472;SDS011;46318;52.716;6.444;2023-09-07T10:31:15;5.80;;;4.88;;
60472;SDS011;46318;52.716;6.444;2023-09-07T10:33:43;5.63;;;5.13;;
60472;SDS011;46318;52.716;6.444;2023-09-07T10:36:26;5.47;;;4.88;;
60472;SDS011;46318;52.716;6.444;2023-09-07T10:38:53;6.57;;;5.43;;
60472;SDS011;46318;52.716;6.444;2023-09-07T10:41:21;5.57;;;5.07;;
60472;SDS011;46318;52.716;6.444;2023-09-07T10:43:51;5.53;;;4.95;;
60472;SDS011;46318;52.716;6.444;2023-09-07T10:46:22;5.38;;;4.75;;
60472;SDS011;46318;52.716;6.444;2023-09-07T10:48:49;5.63;;;4.78;;
60472;SDS011;46318;52.716;6.444;2023-09-07T10:51:17;5.05;;;4.20;;
60472;SDS011;46318;52.716;6.444;2023-09-07T10:53:46;5.25;;;4.75;;
60472;SDS011;46318;52.716;6.444;2023-09-07T10:56:12;5.03;;;4.53;;
60472;SDS011;46318;52.716;6.444;2023-09-07T10:58:38;4.80;;;4.40;;
60472;SDS011;46318;52.716;6.444;2023-09-07T11:01:07;5.50;;;4.72;;
60472;SDS011;46318;52.716;6.444;2023-09-07T11:03:34;5.32;;;4.75;;
60472;SDS011;46318;52.716;6.444;2023-09-07T11:08:36;5.72;;;4.85;;
60472;SDS011;46318;52.716;6.444;2023-09-07T11:11:02;5.80;;;4.85;;
60472;SDS011;46318;52.716;6.444;2023-09-07T11:13:29;4.97;;;4.35;;
60472;SDS011;46318;52.716;6.444;2023-09-07T11:15:58;5.07;;;4.68;;
60472;SDS011;46318;52.716;6.444;2023-09-07T11:18:25;7.60;;;4.68;;
60472;SDS011;46318;52.716;6.444;2023-09-07T11:20:52;4.60;;;4.20;;
60472;SDS011;46318;52.716;6.444;2023-09-07T11:23:19;5.10;;;4.65;;
60472;SDS011;46318;52.716;6.444;2023-09-07T11:25:48;4.93;;;4.40;;
60472;SDS011;46318;52.716;6.444;2023-09-07T11:28:16;5.53;;;4.88;;
60472;SDS011;46318;52.716;6.444;2023-09-07T11:30:53;5.75;;;4.03;;
60472;SDS011;46318;52.716;6.444;2023-09-07T11:33:22;6.72;;;4.60;;
60472;SDS011;46318;52.716;6.444;2023-09-07T11:35:49;6.32;;;4.47;;
60472;SDS011;46318;52.716;6.444;2023-09-07T11:38:16;6.25;;;4.70;;
60472;SDS011;46318;52.716;6.444;2023-09-07T11:40:43;5.72;;;4.45;;
60472;SDS011;46318;52.716;6.444;2023-09-07T11:43:12;5.40;;;4.35;;
60472;SDS011;46318;52.716;6.444;2023-09-07T11:45:44;5.75;;;4.55;;
60472;SDS011;46318;52.716;6.444;2023-09-07T11:48:11;4.70;;;4.22;;
60472;SDS011;46318;52.716;6.444;2023-09-07T11:50:37;4.75;;;3.95;;
60472;SDS011;46318;52.716;6.444;2023-09-07T11:53:04;4.80;;;4.20;;
60472;SDS011;46318;52.716;6.444;2023-09-07T11:55:30;6.40;;;4.43;;
60472;SDS011;46318;52.716;6.444;2023-09-07T11:57:57;6.53;;;4.57;;
60472;SDS011;46318;52.716;6.444;2023-09-07T12:00:23;5.65;;;4.78;;
60472;SDS011;46318;52.716;6.444;2023-09-07T12:02:49;7.95;;;4.40;;
60472;SDS011;46318;52.716;6.444;2023-09-07T12:05:15;6.00;;;4.18;;
60472;SDS011;46318;52.716;6.444;2023-09-07T12:07:43;5.10;;;4.22;;
60472;SDS011;46318;52.716;6.444;2023-09-07T12:10:09;7.40;;;4.78;;
60472;SDS011;46318;52.716;6.444;2023-09-07T12:12:39;5.22;;;4.32;;
60472;SDS011;46318;52.716;6.444;2023-09-07T12:15:05;5.50;;;4.38;;
60472;SDS011;46318;52.716;6.444;2023-09-07T12:17:33;6.95;;;4.35;;
60472;SDS011;46318;52.716;6.444;2023-09-07T12:19:59;4.72;;;4.13;;
60472;SDS011;46318;52.716;6.444;2023-09-07T12:22:26;4.45;;;3.92;;
60472;SDS011;46318;52.716;6.444;2023-09-07T12:24:52;6.35;;;4.00;;
60472;SDS011;46318;52.716;6.444;2023-09-07T12:27:18;4.63;;;3.92;;
60472;SDS011;46318;52.716;6.444;2023-09-07T12:29:45;4.55;;;4.07;;
60472;SDS011;46318;52.716;6.444;2023-09-07T12:32:11;4.65;;;4.22;;
60472;SDS011;46318;52.716;6.444;2023-09-07T12:34:36;5.32;;;4.05;;
60472;SDS011;46318;52.716;6.444;2023-09-07T12:37:04;6.55;;;4.57;;
60472;SDS011;46318;52.716;6.444;2023-09-07T12:39:30;5.78;;;4.30;;
60472;SDS011;46318;52.716;6.444;2023-09-07T12:41:57;4.35;;;3.95;;
60472;SDS011;46318;52.716;6.444;2023-09-07T12:44:22;5.55;;;4.53;;
60472;SDS011;46318;52.716;6.444;2023-09-07T12:46:48;5.65;;;4.10;;
60472;SDS011;46318;52.716;6.444;2023-09-07T12:49:14;4.75;;;4.03;;
60472;SDS011;46318;52.716;6.444;2023-09-07T12:51:40;6.10;;;4.38;;
60472;SDS011;46318;52.716;6.444;2023-09-07T12:54:07;4.72;;;3.90;;
60472;SDS011;46318;52.716;6.444;2023-09-07T12:56:33;4.32;;;3.92;;
60472;SDS011;46318;52.716;6.444;2023-09-07T12:58:59;7.35;;;4.07;;
60472;SDS011;46318;52.716;6.444;2023-09-07T13:01:25;4.25;;;3.85;;
60472;SDS011;46318;52.716;6.444;2023-09-07T13:03:51;4.90;;;4.03;;
60472;SDS011;46318;52.716;6.444;2023-09-07T13:06:17;5.70;;;4.72;;
60472;SDS011;46318;52.716;6.444;2023-09-07T13:08:44;4.90;;;4.50;;
60472;SDS011;46318;52.716;6.444;2023-09-07T13:11:10;4.72;;;4.10;;
60472;SDS011;46318;52.716;6.444;2023-09-07T13:13:36;4.75;;;4.03;;
60472;SDS011;46318;52.716;6.444;2023-09-07T13:16:03;4.30;;;3.85;;
60472;SDS011;46318;52.716;6.444;2023-09-07T13:18:30;4.47;;;4.00;;
60472;SDS011;46318;52.716;6.444;2023-09-07T13:20:56;6.55;;;4.35;;
60472;SDS011;46318;52.716;6.444;2023-09-07T13:23:26;4.63;;;4.23;;
60472;SDS011;46318;52.716;6.444;2023-09-07T13:25:54;6.60;;;4.43;;
60472;SDS011;46318;52.716;6.444;2023-09-07T13:28:21;5.30;;;3.78;;
60472;SDS011;46318;52.716;6.444;2023-09-07T13:30:47;4.32;;;3.83;;
60472;SDS011;46318;52.716;6.444;2023-09-07T13:33:13;4.97;;;4.20;;
60472;SDS011;46318;52.716;6.444;2023-09-07T13:35:39;6.38;;;4.57;;
60472;SDS011;46318;52.716;6.444;2023-09-07T13:38:05;9.25;;;4.10;;
60472;SDS011;46318;52.716;6.444;2023-09-07T13:40:31;4.85;;;4.22;;
60472;SDS011;46318;52.716;6.444;2023-09-07T13:42:57;7.47;;;3.88;;
60472;SDS011;46318;52.716;6.444;2023-09-07T13:45:23;4.60;;;4.20;;
60472;SDS011;46318;52.716;6.444;2023-09-07T13:47:49;4.65;;;3.67;;
60472;SDS011;46318;52.716;6.444;2023-09-07T13:50:15;4.70;;;4.30;;
60472;SDS011;46318;52.716;6.444;2023-09-07T13:52:40;5.25;;;3.88;;
60472;SDS011;46318;52.716;6.444;2023-09-07T13:55:06;5.57;;;3.72;;
60472;SDS011;46318;52.716;6.444;2023-09-07T13:57:33;5.15;;;4.10;;
60472;SDS011;46318;52.716;6.444;2023-09-07T13:59:59;4.63;;;3.83;;
60472;SDS011;46318;52.716;6.444;2023-09-07T14:02:26;5.18;;;3.40;;
60472;SDS011;46318;52.716;6.444;2023-09-07T14:04:52;3.83;;;3.53;;
60472;SDS011;46318;52.716;6.444;2023-09-07T14:07:18;5.28;;;4.07;;
60472;SDS011;46318;52.716;6.444;2023-09-07T14:09:44;4.45;;;4.05;;
60472;SDS011;46318;52.716;6.444;2023-09-07T14:12:10;5.47;;;4.03;;
60472;SDS011;46318;52.716;6.444;2023-09-07T14:14:37;4.65;;;4.25;;
60472;SDS011;46318;52.716;6.444;2023-09-07T14:17:03;3.95;;;3.65;;
60472;SDS011;46318;52.716;6.444;2023-09-07T14:19:29;4.38;;;3.70;;
60472;SDS011;46318;52.716;6.444;2023-09-07T14:21:57;6.00;;;3.92;;
60472;SDS011;46318;52.716;6.444;2023-09-07T14:24:24;4.00;;;3.30;;
60472;SDS011;46318;52.716;6.444;2023-09-07T14:26:50;4.45;;;4.05;;
60472;SDS011;46318;52.716;6.444;2023-09-07T14:29:16;4.55;;;3.95;;
60472;SDS011;46318;52.716;6.444;2023-09-07T14:31:42;6.57;;;4.18;;
60472;SDS011;46318;52.716;6.444;2023-09-07T14:34:08;5.10;;;4.50;;
60472;SDS011;46318;52.716;6.444;2023-09-07T14:36:38;5.10;;;4.28;;
60472;SDS011;46318;52.716;6.444;2023-09-07T14:39:05;9.35;;;4.10;;
60472;SDS011;46318;52.716;6.444;2023-09-07T14:41:32;6.43;;;4.35;;
60472;SDS011;46318;52.716;6.444;2023-09-07T14:43:59;6.55;;;4.25;;
60472;SDS011;46318;52.716;6.444;2023-09-07T14:46:25;4.22;;;3.90;;
60472;SDS011;46318;52.716;6.444;2023-09-07T14:48:54;4.35;;;3.90;;
60472;SDS011;46318;52.716;6.444;2023-09-07T14:51:21;4.57;;;4.18;;
60472;SDS011;46318;52.716;6.444;2023-09-07T14:53:47;4.32;;;3.92;;
60472;SDS011;46318;52.716;6.444;2023-09-07T14:56:13;4.22;;;3.83;;